JBU2207 TNCA-KFLL
Flight info
| Callsign | JBU2207 |
|---|---|
| Flight time | N/A |
| Altitude | 31000 |
| Route | SCAPA1F SCAPA L325 DAKES/N0478F320 DCT PIXAR UM348 ALBBE Y353 KNSLY Y350 ZQA OLAHS3 |
| Aircraft | A320/M-SDE3FGHIRWY/LB1 |
Departure
| Time | 2026-05-03 20:28 |
|---|---|
| Airport | Queen Beatrix International Airport (TNCA) |
Arrival
| Time | N/A |
|---|---|
| Airport | Fort Lauderdale Hollywood International Airport (KFLL) |
| Time | Latitude | Longitude | Altitude | Speed | Heading |
|---|---|---|---|---|---|
| 2026-05-03 20:15 | 12.50275 | -70.00828 | 45 ft | 3 kts | 10° |
| 2026-05-03 20:15 | 12.50255 | -70.00831 | 45 ft | 3 kts | 358° |
| 2026-05-03 20:15 | 12.50235 | -70.00829 | 48 ft | 3 kts | 348° |
| 2026-05-03 20:15 | 12.50224 | -70.00826 | 48 ft | 1 kts | 346° |
| 2026-05-03 20:16 | 12.50223 | -70.00826 | 48 ft | 0 kts | 346° |
| 2026-05-03 20:19 | 12.50224 | -70.00826 | 48 ft | 1 kts | 345° |
| 2026-05-03 20:19 | 12.50236 | -70.00864 | 47 ft | 9 kts | 265° |
| 2026-05-03 20:19 | 12.50233 | -70.00935 | 46 ft | 11 kts | 278° |
| 2026-05-03 20:19 | 12.50251 | -70.01023 | 44 ft | 14 kts | 283° |
| 2026-05-03 20:20 | 12.50242 | -70.01113 | 43 ft | 14 kts | 250° |
| 2026-05-03 20:20 | 12.50245 | -70.01217 | 41 ft | 16 kts | 283° |
| 2026-05-03 20:20 | 12.50273 | -70.01336 | 39 ft | 18 kts | 284° |
| 2026-05-03 20:20 | 12.50301 | -70.01456 | 37 ft | 17 kts | 284° |
| 2026-05-03 20:21 | 12.50332 | -70.01583 | 32 ft | 20 kts | 284° |
| 2026-05-03 20:21 | 12.50366 | -70.01724 | 32 ft | 20 kts | 283° |
| 2026-05-03 20:21 | 12.50397 | -70.01855 | 29 ft | 20 kts | 284° |
| 2026-05-03 20:21 | 12.50432 | -70.01998 | 29 ft | 22 kts | 284° |
| 2026-05-03 20:22 | 12.50468 | -70.02153 | 23 ft | 22 kts | 283° |
| 2026-05-03 20:22 | 12.50505 | -70.02305 | 21 ft | 22 kts | 284° |
| 2026-05-03 20:22 | 12.50541 | -70.02454 | 18 ft | 21 kts | 284° |
| 2026-05-03 20:22 | 12.50569 | -70.02573 | 16 ft | 8 kts | 283° |
| 2026-05-03 20:23 | 12.50578 | -70.02640 | 14 ft | 11 kts | 268° |
| 2026-05-03 20:23 | 12.50543 | -70.02701 | 14 ft | 7 kts | 216° |
| 2026-05-03 20:23 | 12.50515 | -70.02716 | 14 ft | 3 kts | 202° |
| 2026-05-03 20:23 | 12.50492 | -70.02722 | 14 ft | 4 kts | 192° |
| 2026-05-03 20:24 | 12.50453 | -70.02723 | 15 ft | 7 kts | 171° |
| 2026-05-03 20:24 | 12.50415 | -70.02691 | 15 ft | 8 kts | 111° |
| 2026-05-03 20:24 | 12.50412 | -70.02673 | 15 ft | 1 kts | 101° |
| 2026-05-03 20:24 | 12.50411 | -70.02671 | 15 ft | 1 kts | 101° |
| 2026-05-03 20:25 | 12.50410 | -70.02667 | 15 ft | 0 kts | 101° |
| 2026-05-03 20:27 | 12.50409 | -70.02662 | 15 ft | 4 kts | 100° |
| 2026-05-03 20:27 | 12.50351 | -70.02409 | 18 ft | 70 kts | 104° |
| 2026-05-03 20:27 | 12.50189 | -70.01730 | 32 ft | 123 kts | 103° |
| 2026-05-03 20:28 | 12.49948 | -70.00747 | 179 ft | 153 kts | 104° |
| 2026-05-03 20:28 | 12.49655 | -69.99684 | 750 ft | 159 kts | 105° |
| 2026-05-03 20:28 | 12.49358 | -69.98595 | 1430 ft | 159 kts | 102° |
| 2026-05-03 20:28 | 12.49095 | -69.97455 | 1794 ft | 174 kts | 101° |
| 2026-05-03 20:29 | 12.48813 | -69.96187 | 2140 ft | 188 kts | 101° |
| 2026-05-03 20:29 | 12.48534 | -69.94867 | 2680 ft | 191 kts | 95° |
| 2026-05-03 20:29 | 12.48828 | -69.93560 | 3150 ft | 197 kts | 60° |
| 2026-05-03 20:29 | 12.49889 | -69.92642 | 3640 ft | 209 kts | 29° |
| 2026-05-03 20:30 | 12.51310 | -69.92211 | 4133 ft | 215 kts | 20° |
| 2026-05-03 20:30 | 12.52762 | -69.91814 | 4626 ft | 217 kts | 18° |
| 2026-05-03 20:30 | 12.54243 | -69.91404 | 4999 ft | 223 kts | 18° |
| 2026-05-03 20:30 | 12.55740 | -69.90985 | 5461 ft | 223 kts | 20° |